Time;durP1;ratioP1;P1;durP2;ratioP2;P2;SDS_P1;SDS_P2;PMS_P1;PMS_P2;Temp;Humidity;BMP_temperature;BMP_pressure;BME280_temperature;BME280_humidity;BME280_pressure;Samples;Min_cycle;Max_cycle;Signal;HPM_P1;HPM_P2
2022/06/02 00:00:53;;;;;;;6.93;4.63;;;8.90;99.90;;;;;;4881948;29;20049;-83
2022/06/02 00:03:36;;;;;;;6.00;4.22;;;8.90;99.90;;;;;;4882060;29;20041;-83
2022/06/02 00:06:31;;;;;;;5.50;4.43;;;8.90;99.90;;;;;;4881168;29;20624;-83
2022/06/02 00:09:10;;;;;;;5.88;4.10;;;8.90;99.90;;;;;;4878172;29;20056;-83
2022/06/02 00:11:54;;;;;;;6.85;4.57;;;8.80;99.90;;;;;;4881594;29;20056;-83
2022/06/02 00:14:34;;;;;;;6.43;4.72;;;8.80;99.90;;;;;;4870726;29;20064;-83
2022/06/02 00:17:18;;;;;;;8.90;4.90;;;8.80;99.90;;;;;;4880690;29;20052;-83
2022/06/02 00:19:49;;;;;;;6.03;4.35;;;8.80;99.90;;;;;;4861619;29;20092;-85
2022/06/02 00:22:26;;;;;;;5.10;4.18;;;8.80;99.90;;;;;;4898172;29;20099;-83
2022/06/02 00:25:08;;;;;;;6.30;4.53;;;8.70;99.90;;;;;;4880423;29;20056;-83
2022/06/02 00:27:50;;;;;;;4.85;3.83;;;8.70;99.90;;;;;;4880676;29;20051;-83
2022/06/02 00:30:26;;;;;;;4.95;3.83;;;8.70;99.90;;;;;;4897048;29;20085;-83
2022/06/02 00:33:09;;;;;;;9.98;4.85;;;8.70;99.90;;;;;;4896520;29;20516;-83
2022/06/02 00:35:51;;;;;;;6.15;4.45;;;8.70;99.90;;;;;;4866247;29;20092;-83
2022/06/02 00:38:34;;;;;;;7.03;4.40;;;8.70;99.90;;;;;;4881500;29;20123;-83
2022/06/02 00:41:18;;;;;;;8.43;4.63;;;8.70;99.90;;;;;;4895217;29;20048;-83
2022/06/02 00:43:51;;;;;;;6.03;4.43;;;8.60;99.90;;;;;;4878578;29;20052;-83
2022/06/02 00:46:48;;;;;;;7.43;4.47;;;8.70;99.90;;;;;;4898041;29;20052;-83
2022/06/02 00:49:26;;;;;;;7.07;4.63;;;8.60;99.90;;;;;;4896542;29;20048;-83
2022/06/02 00:52:11;;;;;;;5.22;4.43;;;8.60;99.90;;;;;;4878727;29;20049;-83
2022/06/02 00:58:10;;;;;;;9.98;4.75;;;8.60;99.90;;;;;;4878111;29;20632;-82
2022/06/02 01:00:49;;;;;;;6.50;4.75;;;8.60;99.90;;;;;;4880967;29;20048;-83
2022/06/02 01:03:24;;;;;;;6.60;4.78;;;8.80;99.90;;;;;;4896051;29;20053;-84
2022/06/02 01:06:18;;;;;;;4.95;4.07;;;8.50;99.90;;;;;;4880721;29;20504;-85
2022/06/02 01:08:53;;;;;;;6.82;4.82;;;8.50;99.90;;;;;;4860246;29;20563;-83
2022/06/02 01:11:41;;;;;;;6.78;4.50;;;8.50;99.90;;;;;;4880211;29;20060;-83
2022/06/02 01:14:24;;;;;;;6.60;4.72;;;8.40;99.90;;;;;;4879678;29;20083;-84
2022/06/02 01:17:18;;;;;;;5.57;4.05;;;8.40;99.90;;;;;;4884014;29;20056;-85
2022/06/02 01:19:56;;;;;;;6.28;4.20;;;8.40;99.90;;;;;;4860599;29;20056;-84
2022/06/02 01:22:59;;;;;;;7.78;4.88;;;8.40;99.90;;;;;;4863277;29;20041;-83
2022/06/02 01:25:43;;;;;;;6.10;4.75;;;8.40;99.90;;;;;;4843873;29;20053;-83
2022/06/02 01:28:46;;;;;;;7.28;4.90;;;8.30;99.90;;;;;;4864229;29;20420;-83
2022/06/02 01:31:22;;;;;;;7.03;5.30;;;8.30;99.90;;;;;;4878173;29;20905;-83
2022/06/02 01:33:54;;;;;;;6.28;4.50;;;8.30;99.90;;;;;;4880414;29;20108;-83
2022/06/02 01:36:37;;;;;;;6.45;4.57;;;8.60;99.90;;;;;;4879966;29;20055;-83
2022/06/02 01:39:14;;;;;;;4.60;4.10;;;8.30;99.90;;;;;;4896326;29;20073;-83
2022/06/02 01:41:51;;;;;;;6.88;4.95;;;8.20;99.90;;;;;;4864825;29;20056;-84
2022/06/02 01:44:43;;;;;;;8.80;4.90;;;8.20;99.90;;;;;;4891395;29;20061;-83
2022/06/02 01:47:31;;;;;;;6.28;4.95;;;8.20;99.90;;;;;;4879628;29;20052;-83
2022/06/02 01:50:18;;;;;;;5.00;4.05;;;8.10;99.90;;;;;;4879111;29;20055;-84
2022/06/02 01:53:01;;;;;;;8.93;5.20;;;8.10;99.90;;;;;;4880192;29;20373;-83
2022/06/02 01:55:47;;;;;;;5.85;5.13;;;8.00;99.90;;;;;;4896199;29;20060;-83
2022/06/02 01:58:46;;;;;;;7.35;4.90;;;8.00;99.90;;;;;;4879481;29;20063;-83
2022/06/02 02:01:41;;;;;;;10.63;5.53;;;8.00;99.90;;;;;;4879234;29;20091;-83
2022/06/02 02:04:35;;;;;;;6.25;4.90;;;7.90;99.90;;;;;;4896072;29;20056;-83
2022/06/02 02:07:01;;;;;;;8.02;6.05;;;7.90;99.90;;;;;;4893251;29;20056;-84
2022/06/02 02:09:54;;;;;;;5.77;4.73;;;7.90;99.90;;;;;;4879954;29;20059;-83
2022/06/02 02:13:05;;;;;;;5.45;4.82;;;7.90;99.90;;;;;;4863648;29;20169;-83
2022/06/02 02:16:06;;;;;;;6.00;3.85;;;7.90;99.90;;;;;;4879853;29;20045;-83
2022/06/02 02:19:16;;;;;;;7.28;4.75;;;7.80;99.90;;;;;;4879735;29;20450;-83
2022/06/02 02:21:54;;;;;;;7.65;5.38;;;7.40;99.90;;;;;;4874228;29;20075;-83
2022/06/02 02:24:19;;;;;;;;;;;7.80;99.90;;;;;;4879627;29;20131;-83
2022/06/02 02:26:52;;;;;;;5.50;4.07;;;7.70;99.90;;;;;;4879531;29;20010;-83
2022/06/02 02:29:21;;;;;;;6.25;4.53;;;7.70;99.90;;;;;;4875644;29;20487;-84
2022/06/02 02:32:17;;;;;;;9.23;5.45;;;7.70;99.90;;;;;;4879095;29;20055;-83
2022/06/02 02:35:08;;;;;;;8.43;5.25;;;7.70;99.90;;;;;;4870961;29;20427;-84
2022/06/02 02:37:38;;;;;;;6.28;4.65;;;7.60;99.90;;;;;;4891455;29;20068;-83
2022/06/02 02:40:07;;;;;;;8.05;5.07;;;7.80;99.90;;;;;;4878999;29;20396;-83
2022/06/02 02:42:51;;;;;;;7.47;5.68;;;7.60;99.90;;;;;;4879574;29;20048;-83
2022/06/02 02:45:51;;;;;;;9.00;5.20;;;7.60;99.90;;;;;;4886706;29;20063;-83
2022/06/02 02:48:28;;;;;;;12.15;6.13;;;7.50;99.90;;;;;;4893558;29;20128;-83
2022/06/02 02:51:21;;;;;;;11.15;5.78;;;7.50;99.90;;;;;;4898510;29;20052;-84
2022/06/02 02:53:58;;;;;;;7.70;5.30;;;7.50;99.90;;;;;;4883379;29;20053;-83
2022/06/02 02:56:40;;;;;;;6.57;5.90;;;7.80;99.90;;;;;;4882714;29;20235;-83
2022/06/02 02:59:48;;;;;;;9.20;5.63;;;7.50;99.90;;;;;;4898307;29;20104;-84
2022/06/02 03:02:32;;;;;;;7.65;5.07;;;7.50;99.90;;;;;;4896734;29;20400;-83
2022/06/02 03:05:35;;;;;;;8.27;5.90;;;7.50;99.90;;;;;;4883013;29;20176;-83
2022/06/02 03:08:11;;;;;;;6.63;5.57;;;7.50;99.90;;;;;;4883011;29;20406;-83
2022/06/02 03:10:43;;;;;;;8.48;5.97;;;7.50;99.90;;;;;;4882900;29;20412;-83
2022/06/02 03:13:52;;;;;;;9.88;5.82;;;7.50;99.90;;;;;;4899030;29;20108;-83
2022/06/02 03:16:21;;;;;;;11.90;7.30;;;7.50;99.90;;;;;;4856265;29;20050;-83
2022/06/02 03:19:07;;;;;;;10.13;6.55;;;7.50;99.90;;;;;;4852998;29;20057;-83
2022/06/02 03:21:54;;;;;;;11.20;6.70;;;7.50;99.90;;;;;;4864609;29;20148;-83
2022/06/02 03:24:52;;;;;;;7.97;6.07;;;7.40;99.90;;;;;;4897831;29;20100;-84
2022/06/02 03:27:32;;;;;;;7.83;6.10;;;7.40;99.90;;;;;;4880504;29;20517;-83
2022/06/02 03:30:09;;;;;;;7.75;6.30;;;7.40;99.90;;;;;;4882593;29;20041;-83
2022/06/02 03:32:47;;;;;;;8.88;5.88;;;7.40;99.90;;;;;;4896601;29;20055;-83
2022/06/02 03:35:24;;;;;;;11.55;6.55;;;7.40;99.90;;;;;;4881746;29;20059;-83
2022/06/02 03:37:58;;;;;;;7.03;5.97;;;7.40;99.90;;;;;;4882489;29;20048;-84
2022/06/02 03:40:33;;;;;;;11.70;6.28;;;7.40;99.90;;;;;;4882230;29;20063;-83
2022/06/02 03:43:28;;;;;;;6.72;5.13;;;7.40;99.90;;;;;;4882325;29;20048;-83
2022/06/02 03:46:27;;;;;;;11.90;6.35;;;7.40;99.90;;;;;;4881245;29;20064;-83
2022/06/02 03:49:30;;;;;;;8.55;5.22;;;7.40;99.90;;;;;;4882362;29;20506;-83
2022/06/02 03:52:28;;;;;;;8.88;6.05;;;7.40;99.90;;;;;;4884839;29;20045;-83
2022/06/02 03:55:33;;;;;;;7.82;5.85;;;7.40;99.90;;;;;;4881829;29;20051;-83
2022/06/02 03:58:40;;;;;;;9.15;5.88;;;7.40;99.90;;;;;;4874936;29;20056;-83
2022/06/02 04:01:09;;;;;;;8.10;5.95;;;7.40;99.90;;;;;;4874505;29;20068;-84
2022/06/02 04:03:59;;;;;;;8.30;5.90;;;7.40;99.90;;;;;;4865874;29;20496;-83
2022/06/02 04:06:48;;;;;;;7.82;6.05;;;7.50;99.90;;;;;;4864418;29;20563;-83
2022/06/02 04:09:49;;;;;;;9.13;5.47;;;7.50;99.90;;;;;;4881473;29;20048;-84
2022/06/02 04:15:53;;;;;;;9.80;6.78;;;7.50;99.90;;;;;;4881423;29;20071;-83
2022/06/02 04:18:57;;;;;;;8.15;6.05;;;7.50;99.90;;;;;;4865748;29;20056;-84
2022/06/02 04:21:58;;;;;;;10.50;6.32;;;7.50;99.90;;;;;;4842275;29;20061;-83
2022/06/02 04:24:35;;;;;;;11.80;7.15;;;7.50;99.90;;;;;;4842924;29;20051;-83
2022/06/02 04:27:38;;;;;;;10.27;6.72;;;7.50;99.90;;;;;;4881706;29;20045;-83
2022/06/02 04:30:26;;;;;;;6.18;5.50;;;7.60;99.90;;;;;;4881483;29;20116;-83
2022/06/02 04:33:11;;;;;;;10.57;6.43;;;7.60;99.90;;;;;;4865974;29;20052;-83
2022/06/02 04:35:42;;;;;;;8.20;6.38;;;7.60;99.90;;;;;;4893879;29;20561;-83
2022/06/02 04:38:17;;;;;;;9.45;7.60;;;7.70;99.90;;;;;;4865978;29;20100;-83
2022/06/02 04:41:10;;;;;;;12.60;6.53;;;7.70;99.90;;;;;;4898036;29;20090;-83
2022/06/02 04:44:13;;;;;;;11.55;7.03;;;7.80;99.90;;;;;;4896641;29;20740;-85
2022/06/02 04:46:47;;;;;;;9.40;6.25;;;7.90;99.90;;;;;;4871722;29;20407;-84
2022/06/02 04:49:26;;;;;;;7.20;6.32;;;7.90;99.90;;;;;;4881166;29;20048;-83
2022/06/02 04:52:16;;;;;;;9.27;5.90;;;7.90;99.90;;;;;;4880900;29;20076;-83
2022/06/02 04:55:19;;;;;;;7.70;5.78;;;8.00;99.90;;;;;;4892978;29;20127;-83
2022/06/02 04:57:58;;;;;;;9.45;6.72;;;8.10;99.90;;;;;;4881167;29;20063;-84
2022/06/02 05:00:42;;;;;;;11.10;6.53;;;7.90;99.90;;;;;;4879634;29;20070;-83
2022/06/02 05:03:13;;;;;;;11.55;8.07;;;9.00;99.90;;;;;;4865299;29;20825;-83
2022/06/02 05:06:02;;;;;;;12.18;7.70;;;8.40;99.90;;;;;;4880360;29;20732;-84
2022/06/02 05:08:32;;;;;;;8.65;6.35;;;8.50;99.90;;;;;;4880588;29;20063;-84
2022/06/02 05:11:12;;;;;;;9.35;6.57;;;8.70;99.90;;;;;;4864821;29;20044;-84
2022/06/02 05:13:44;;;;;;;9.20;6.43;;;8.90;99.90;;;;;;4879564;29;20127;-84
2022/06/02 05:16:11;;;;;;;13.07;6.75;;;9.10;99.90;;;;;;4880767;29;20049;-84
2022/06/02 05:18:55;;;;;;;12.18;7.40;;;9.50;99.90;;;;;;4880172;29;20119;-83
2022/06/02 05:21:34;;;;;;;7.47;5.78;;;8.70;99.90;;;;;;4880328;29;20521;-85
2022/06/02 05:24:16;;;;;;;9.13;5.95;;;9.40;99.90;;;;;;4879994;29;20062;-84
2022/06/02 05:27:10;;;;;;;7.82;5.25;;;9.50;99.90;;;;;;4864550;29;20048;-84
2022/06/02 05:30:08;;;;;;;8.40;5.18;;;9.70;99.90;;;;;;4877391;29;20060;-84
2022/06/02 05:32:40;;;;;;;7.50;5.82;;;9.80;99.90;;;;;;4861504;29;20180;-84
2022/06/02 05:35:33;;;;;;;6.97;5.20;;;10.00;99.90;;;;;;4879950;29;20052;-83
2022/06/02 05:38:26;;;;;;;7.63;4.63;;;10.10;99.90;;;;;;4875639;29;20040;-84
2022/06/02 05:41:16;;;;;;;5.15;4.60;;;10.30;99.90;;;;;;4895758;29;20044;-84
2022/06/02 05:44:10;;;;;;;7.55;4.55;;;10.40;99.90;;;;;;4879457;29;20048;-84
2022/06/02 05:47:06;;;;;;;7.72;5.03;;;10.50;99.90;;;;;;4879444;29;20049;-84
2022/06/02 05:49:59;;;;;;;7.57;4.75;;;10.70;99.90;;;;;;4879557;29;20049;-84
2022/06/02 05:52:37;;;;;;;6.22;4.75;;;10.80;99.90;;;;;;4879644;29;20112;-85
2022/06/02 05:55:08;;;;;;;5.82;4.75;;;11.20;99.90;;;;;;4879901;29;20059;-84
2022/06/02 05:58:02;;;;;;;6.93;5.22;;;11.10;99.90;;;;;;4863941;29;20052;-84
2022/06/02 06:00:49;;;;;;;4.18;3.78;;;11.30;99.90;;;;;;4877899;29;20144;-84
2022/06/02 06:03:35;;;;;;;;;;;11.50;99.90;;;;;;4877842;29;20502;-84
2022/06/02 06:06:42;;;;;;;5.28;3.58;;;11.60;99.90;;;;;;4862937;29;20177;-84
2022/06/02 06:09:30;;;;;;;3.45;3.05;;;11.80;99.90;;;;;;4894338;29;20056;-84
2022/06/02 06:12:14;;;;;;;5.53;3.50;;;12.00;99.90;;;;;;4879517;29;20049;-85
2022/06/02 06:15:08;;;;;;;4.22;3.10;;;12.20;99.90;;;;;;4883024;29;20056;-84
2022/06/02 06:17:51;;;;;;;3.03;2.72;;;12.20;99.90;;;;;;4883745;29;20057;-84
2022/06/02 06:20:35;;;;;;;6.00;2.60;;;12.30;99.90;;;;;;4869626;29;20084;-84
2022/06/02 06:23:16;;;;;;;3.30;2.42;;;12.50;99.90;;;;;;4863318;29;20071;-84
2022/06/02 06:25:46;;;;;;;3.88;2.92;;;12.60;99.90;;;;;;4879317;29;20135;-84
2022/06/02 06:28:18;;;;;;;2.90;2.70;;;12.70;99.90;;;;;;4879685;29;20507;-84
2022/06/02 06:31:12;;;;;;;3.55;2.67;;;12.80;99.90;;;;;;4893349;29;20445;-84
2022/06/02 06:34:02;;;;;;;3.25;2.25;;;12.90;99.90;;;;;;4861629;29;20400;-85
2022/06/02 06:36:33;;;;;;;3.15;2.13;;;13.00;99.90;;;;;;4879505;29;20057;-84
2022/06/02 06:38:59;;;;;;;2.70;2.17;;;13.00;99.90;;;;;;4879354;29;20041;-84
2022/06/02 06:42:17;;;;;;;4.13;2.07;;;13.20;99.90;;;;;;4864315;29;20062;-84
2022/06/02 06:44:56;;;;;;;2.05;1.60;;;13.10;99.90;;;;;;4880492;29;20124;-84
2022/06/02 06:47:37;;;;;;;2.80;1.63;;;13.20;99.90;;;;;;4879151;29;20044;-84
2022/06/02 06:50:25;;;;;;;1.70;1.60;;;13.40;99.90;;;;;;4879394;29;20045;-84
2022/06/02 06:53:15;;;;;;;1.88;1.50;;;13.50;99.90;;;;;;4892989;29;20052;-84
2022/06/02 06:55:49;;;;;;;2.47;1.60;;;13.60;99.90;;;;;;4878509;29;20044;-84
2022/06/02 06:58:42;;;;;;;2.25;1.60;;;13.30;99.90;;;;;;4872559;29;20054;-83
2022/06/02 07:01:16;;;;;;;1.85;1.52;;;13.70;99.90;;;;;;4862957;29;20052;-85
2022/06/02 07:03:53;;;;;;;2.03;1.88;;;13.80;99.90;;;;;;4893334;29;20060;-85
2022/06/02 07:06:29;;;;;;;2.63;1.92;;;13.90;99.90;;;;;;4878104;29;20048;-85
2022/06/02 07:09:23;;;;;;;1.98;1.70;;;14.10;99.90;;;;;;4873909;29;20046;-85
2022/06/02 07:15:04;;;;;;;2.08;1.80;;;14.00;99.90;;;;;;4878347;29;20053;-85
2022/06/02 07:17:48;;;;;;;1.55;1.40;;;14.10;99.90;;;;;;4879141;29;20055;-84
2022/06/02 07:20:20;;;;;;;1.17;1.10;;;14.10;99.90;;;;;;4878789;29;20103;-86
2022/06/02 07:23:05;;;;;;;2.13;1.50;;;14.10;99.90;;;;;;4878826;29;20459;-85
2022/06/02 07:25:57;;;;;;;1.15;0.98;;;14.00;99.90;;;;;;4878927;29;20373;-86
2022/06/02 07:28:55;;;;;;;3.17;1.55;;;14.10;99.90;;;;;;4864804;29;20059;-86
2022/06/02 07:31:30;;;;;;;;;;;14.20;99.90;;;;;;4894711;29;20124;-87
2022/06/02 07:33:58;;;;;;;2.83;1.13;;;14.10;99.90;;;;;;4893225;29;19923;-84
2022/06/02 07:36:48;;;;;;;3.20;0.98;;;14.30;99.90;;;;;;4884633;29;20159;-84
2022/06/02 07:39:41;;;;;;;2.45;1.58;;;14.40;99.90;;;;;;4882758;29;20052;-85
2022/06/02 07:42:36;;;;;;;1.50;1.20;;;14.50;99.90;;;;;;4890336;29;20072;-85
2022/06/02 07:45:21;;;;;;;1.55;1.25;;;14.60;99.90;;;;;;4880725;29;20515;-85
2022/06/02 07:47:47;;;;;;;3.00;1.23;;;14.80;99.90;;;;;;4882207;29;20063;-84
2022/06/02 07:50:27;;;;;;;1.13;0.90;;;14.80;99.90;;;;;;4881963;29;20036;-85
2022/06/02 07:53:13;;;;;;;1.40;1.30;;;14.70;99.90;;;;;;4898451;29;20053;-85
2022/06/02 07:56:12;;;;;;;1.35;0.90;;;14.50;99.90;;;;;;4883173;29;20045;-84
2022/06/02 07:58:40;;;;;;;0.80;0.80;;;14.30;99.90;;;;;;4866816;29;20067;-84
2022/06/02 08:01:43;;;;;;;1.15;0.90;;;14.10;99.90;;;;;;4881355;29;20460;-83
2022/06/02 08:04:31;;;;;;;1.02;0.98;;;14.10;99.90;;;;;;4880563;29;20128;-83
2022/06/02 08:07:21;;;;;;;1.77;1.30;;;14.20;99.90;;;;;;4898260;29;20535;-83
2022/06/02 08:10:05;;;;;;;1.70;0.95;;;14.20;99.90;;;;;;4899316;29;20049;-84
2022/06/02 08:12:48;;;;;;;1.00;1.00;;;14.10;99.90;;;;;;4880102;29;20048;-83
2022/06/02 08:15:35;;;;;;;1.40;1.30;;;14.10;99.90;;;;;;4881367;29;20107;-83
2022/06/02 08:18:04;;;;;;;2.00;1.80;;;14.20;99.90;;;;;;4855894;29;20416;-83
2022/06/02 08:20:59;;;;;;;2.05;1.30;;;14.40;99.90;;;;;;4881155;29;20067;-83
2022/06/02 08:23:24;;;;;;;2.28;1.27;;;14.50;99.90;;;;;;4898367;29;20041;-82
2022/06/02 08:25:58;;;;;;;1.17;0.93;;;14.60;99.90;;;;;;4881195;29;20049;-82
2022/06/02 08:28:24;;;;;;;1.10;1.00;;;14.50;99.90;;;;;;4864132;29;20135;-82
2022/06/02 08:30:53;;;;;;;4.30;1.00;;;14.30;99.90;;;;;;4881272;29;20132;-83
2022/06/02 08:33:27;;;;;;;1.60;1.27;;;14.20;99.90;;;;;;4881789;29;20051;-84
2022/06/02 08:36:17;;;;;;;1.20;1.10;;;14.20;99.90;;;;;;4880518;29;20053;-82
2022/06/02 08:38:55;;;;;;;3.85;1.17;;;14.30;99.90;;;;;;4881552;29;20052;-83
2022/06/02 08:41:48;;;;;;;1.38;1.15;;;14.50;99.90;;;;;;4896552;29;20054;-83
2022/06/02 08:44:32;;;;;;;2.13;1.30;;;14.80;99.90;;;;;;4866964;29;20138;-82
2022/06/02 08:47:06;;;;;;;1.20;1.10;;;15.00;99.90;;;;;;4881392;29;20052;-82
2022/06/02 08:49:51;;;;;;;0.90;0.90;;;15.00;99.90;;;;;;4882917;29;20055;-81
2022/06/02 08:52:35;;;;;;;1.67;1.45;;;14.90;99.90;;;;;;4868656;29;20045;-82
2022/06/02 08:55:38;;;;;;;1.58;1.17;;;14.80;99.90;;;;;;4863729;29;20041;-81
2022/06/02 08:58:42;;;;;;;0.85;0.85;;;14.80;99.90;;;;;;4848345;29;20084;-82
2022/06/02 09:01:10;;;;;;;1.50;1.05;;;15.10;99.90;;;;;;4849351;29;20083;-81
2022/06/02 09:04:14;;;;;;;2.13;1.25;;;15.30;99.90;;;;;;4864189;29;20041;-81
2022/06/02 09:06:49;;;;;;;1.45;1.35;;;15.60;99.90;;;;;;4864858;29;20053;-81
2022/06/02 09:09:18;;;;;;;1.60;0.98;;;15.90;99.90;;;;;;4864017;29;20442;-81
2022/06/02 09:12:11;;;;;;;1.42;1.30;;;15.80;99.90;;;;;;4868070;29;20381;-82
2022/06/02 09:15:20;;;;;;;2.13;1.48;;;15.70;99.90;;;;;;4880240;29;20152;-82
2022/06/02 09:18:10;;;;;;;1.15;1.05;;;15.60;99.90;;;;;;4863549;29;20485;-82
2022/06/02 09:21:03;;;;;;;0.93;0.93;;;15.50;99.90;;;;;;4863691;29;20105;-82
2022/06/02 09:24:00;;;;;;;1.38;1.27;;;15.50;99.90;;;;;;4864633;29;20061;-82
2022/06/02 09:27:03;;;;;;;1.10;1.02;;;15.70;99.90;;;;;;4863612;29;20053;-82
2022/06/02 09:29:42;;;;;;;1.33;1.23;;;16.00;99.90;;;;;;4863481;29;20049;-82
2022/06/02 09:32:14;;;;;;;2.90;1.08;;;16.30;99.90;;;;;;4864862;29;20048;-82
2022/06/02 09:35:08;;;;;;;1.63;1.20;;;16.40;99.90;;;;;;4863715;29;20053;-82
2022/06/02 09:37:45;;;;;;;1.35;0.75;;;16.30;99.90;;;;;;4848126;29;20492;-81
2022/06/02 09:40:42;;;;;;;1.38;1.13;;;16.20;99.90;;;;;;4863064;29;20049;-82
2022/06/02 09:43:31;;;;;;;1.15;1.05;;;16.10;99.90;;;;;;4867159;29;20044;-82
2022/06/02 09:46:09;;;;;;;3.15;1.30;;;16.00;99.90;;;;;;4879609;29;20111;-82
2022/06/02 09:48:43;;;;;;;1.05;0.95;;;16.10;99.90;;;;;;4866480;29;20064;-82
2022/06/02 09:51:34;;;;;;;0.90;0.82;;;16.30;99.90;;;;;;4866719;29;20049;-82
2022/06/02 09:54:06;;;;;;;1.20;1.10;;;16.40;99.90;;;;;;4874542;29;20052;-82
2022/06/02 09:56:59;;;;;;;2.25;1.02;;;16.40;99.90;;;;;;4862782;29;20048;-82
2022/06/02 09:59:34;;;;;;;0.70;0.70;;;16.30;99.90;;;;;;4863222;29;20053;-81
2022/06/02 10:02:14;;;;;;;1.27;1.00;;;16.00;99.90;;;;;;4878126;29;20504;-82
2022/06/02 10:04:52;;;;;;;1.73;0.73;;;15.90;99.90;;;;;;4862564;29;20119;-82
2022/06/02 10:07:21;;;;;;;0.73;0.70;;;16.10;99.90;;;;;;4862699;29;20470;-81
2022/06/02 10:10:09;;;;;;;1.08;1.05;;;16.40;99.90;;;;;;4862882;29;20160;-82
2022/06/02 10:12:54;;;;;;;;;;;16.60;99.90;;;;;;4879836;29;20056;-82
2022/06/02 10:15:39;;;;;;;1.50;0.60;;;16.70;99.90;;;;;;4869706;29;19927;-82
2022/06/02 10:18:35;;;;;;;1.27;1.17;;;16.70;99.90;;;;;;4879426;29;20108;-83
2022/06/02 10:21:01;;;;;;;1.08;0.98;;;16.50;99.90;;;;;;4879031;29;20396;-83
2022/06/02 10:24:08;;;;;;;1.60;1.03;;;16.40;99.90;;;;;;4879283;29;20044;-85
2022/06/02 10:26:55;;;;;;;1.05;1.05;;;16.20;99.90;;;;;;4880042;29;20132;-82
2022/06/02 10:29:59;;;;;;;0.68;0.68;;;16.10;99.90;;;;;;4879568;29;20131;-86
2022/06/02 10:33:02;;;;;;;1.27;1.15;;;16.20;99.90;;;;;;4878960;29;20127;-86
2022/06/02 10:35:52;;;;;;;0.85;0.85;;;16.50;99.90;;;;;;4876101;29;20053;-87
2022/06/02 10:38:18;;;;;;;1.00;1.00;;;16.90;99.90;;;;;;4846806;29;20057;-84
2022/06/02 10:41:11;;;;;;;1.23;0.90;;;17.30;99.90;;;;;;4870448;29;20128;-84
2022/06/02 10:44:06;;;;;;;0.75;0.75;;;17.20;99.90;;;;;;4881248;29;20514;-83
2022/06/02 10:47:23;;;;;;;3.17;0.95;;;17.20;99.90;;;;;;4862239;29;20060;-83
2022/06/02 10:50:20;;;;;;;1.08;1.00;;;17.10;99.90;;;;;;4879812;29;20057;-83
2022/06/02 10:53:10;;;;;;;0.77;0.77;;;16.80;99.90;;;;;;4891567;29;20384;-83
2022/06/02 10:55:55;;;;;;;2.00;0.90;;;16.90;99.90;;;;;;4882401;29;20139;-83
2022/06/02 10:58:54;;;;;;;0.85;0.80;;;16.80;99.90;;;;;;4878341;29;20452;-84
2022/06/02 11:01:50;;;;;;;0.80;0.80;;;16.80;99.90;;;;;;4893343;29;20492;-83
2022/06/02 11:04:24;;;;;;;1.27;1.17;;;16.70;99.90;;;;;;4879280;29;20044;-83
2022/06/02 11:07:12;;;;;;;1.40;1.08;;;16.70;99.90;;;;;;4879154;29;20045;-83
2022/06/02 11:10:08;;;;;;;2.35;0.95;;;17.00;99.90;;;;;;4861818;29;20063;-82
2022/06/02 11:12:36;;;;;;;2.97;1.67;;;17.20;99.90;;;;;;4865235;29;20124;-84
2022/06/02 11:15:24;;;;;;;2.25;1.20;;;17.40;99.90;;;;;;4882322;29;20060;-83
2022/06/02 11:18:17;;;;;;;1.30;0.90;;;17.40;99.90;;;;;;4864819;29;20048;-83
2022/06/02 11:20:55;;;;;;;1.20;0.90;;;17.30;99.90;;;;;;4878299;29;20052;-83
2022/06/02 11:23:49;;;;;;;0.75;0.75;;;17.20;99.90;;;;;;4881526;29;20412;-83
2022/06/02 11:26:36;;;;;;;1.92;0.68;;;17.00;99.90;;;;;;4899241;29;20123;-85
2022/06/02 11:29:21;;;;;;;0.95;0.93;;;17.00;99.90;;;;;;4865954;29;20059;-83
2022/06/02 11:32:05;;;;;;;1.15;1.05;;;16.90;99.90;;;;;;4881989;29;20045;-84
2022/06/02 11:35:12;;;;;;;0.75;0.70;;;17.00;99.90;;;;;;4873757;29;20052;-84
2022/06/02 11:37:44;;;;;;;2.33;0.93;;;17.30;99.90;;;;;;4898934;29;20508;-83
2022/06/02 11:40:31;;;;;;;0.70;0.70;;;17.40;99.90;;;;;;4881997;29;20063;-84
2022/06/02 11:43:14;;;;;;;0.57;0.57;;;17.30;99.90;;;;;;4882665;29;20079;-83
2022/06/02 11:46:17;;;;;;;0.82;0.82;;;17.20;99.90;;;;;;4889545;29;20136;-84
2022/06/02 11:49:01;;;;;;;0.77;0.68;;;17.10;99.90;;;;;;4882603;29;20392;-84
2022/06/02 11:51:51;;;;;;;1.08;0.98;;;17.00;99.90;;;;;;4880581;29;20385;-84
2022/06/02 11:54:20;;;;;;;1.08;0.93;;;17.10;99.90;;;;;;4879992;29;20060;-84
2022/06/02 11:57:07;;;;;;;0.77;0.70;;;17.40;99.90;;;;;;4866819;29;20048;-84
2022/06/02 11:59:45;;;;;;;1.38;1.00;;;17.70;99.90;;;;;;4866468;29;20056;-85
2022/06/02 12:02:16;;;;;;;1.25;1.15;;;17.90;99.90;;;;;;4882196;29;20049;-86
2022/06/02 12:05:01;;;;;;;1.13;0.95;;;18.10;99.90;;;;;;4888463;29;20053;-84
2022/06/02 12:07:57;;;;;;;1.77;1.23;;;18.30;99.90;;;;;;4863698;29;20488;-84
2022/06/02 12:10:44;;;;;;;0.90;0.90;;;18.50;99.90;;;;;;4856459;29;20045;-85
2022/06/02 12:13:31;;;;;;;1.15;0.77;;;18.70;99.90;;;;;;4879099;29;20045;-84
2022/06/02 12:16:15;;;;;;;2.15;1.70;;;19.30;99.90;;;;;;4880987;29;20048;-85
2022/06/02 12:18:53;;;;;;;0.88;0.88;;;19.10;99.90;;;;;;4882079;29;20488;-84
2022/06/02 12:21:47;;;;;;;1.10;1.00;;;19.20;99.90;;;;;;4879924;29;20056;-85
2022/06/02 12:24:35;;;;;;;0.95;0.93;;;19.40;99.90;;;;;;4881838;29;20051;-85
2022/06/02 12:27:45;;;;;;;1.05;0.85;;;19.50;99.90;;;;;;4896372;29;20044;-85
2022/06/02 12:30:49;;;;;;;1.05;0.95;;;19.60;99.90;;;;;;4872376;29;20083;-85
2022/06/02 12:33:37;;;;;;;1.63;1.52;;;19.50;99.90;;;;;;4851403;29;20045;-86
2022/06/02 12:36:14;;;;;;;1.00;0.90;;;19.60;99.90;;;;;;4881524;29;20052;-84
2022/06/02 12:38:51;;;;;;;1.00;0.90;;;19.50;99.90;;;;;;4881532;29;20062;-84
2022/06/02 12:41:23;;;;;;;0.77;0.77;;;19.60;99.90;;;;;;4880140;29;20562;-85
2022/06/02 12:44:07;;;;;;;1.10;0.88;;;19.80;99.90;;;;;;4866786;29;20049;-84
2022/06/02 12:46:57;;;;;;;1.17;1.08;;;19.90;99.90;;;;;;4880843;29;20060;-84
2022/06/02 12:49:35;;;;;;;0.70;0.70;;;19.80;99.90;;;;;;4878478;29;20080;-85
2022/06/02 12:52:19;;;;;;;0.98;0.85;;;19.70;99.90;;;;;;4880957;29;20048;-85
2022/06/02 12:55:04;;;;;;;0.98;0.90;;;19.40;99.90;;;;;;4896313;29;20041;-84
2022/06/02 12:57:47;;;;;;;0.73;0.70;;;19.20;99.90;;;;;;4881025;29;20044;-84
2022/06/02 13:00:19;;;;;;;1.85;0.88;;;19.00;99.90;;;;;;4863341;29;20551;-85
2022/06/02 13:03:19;;;;;;;1.10;0.90;;;18.90;99.90;;;;;;4881156;29;20045;-85
2022/06/02 13:05:54;;;;;;;3.17;1.15;;;19.00;99.90;;;;;;4893694;29;20080;-84
2022/06/02 13:08:44;;;;;;;1.67;0.82;;;19.20;99.90;;;;;;4880910;29;20040;-85
2022/06/02 13:11:13;;;;;;;2.00;1.08;;;19.40;99.90;;;;;;4880898;29;20040;-84
2022/06/02 13:14:02;;;;;;;3.22;0.82;;;19.50;99.90;;;;;;4880708;29;20052;-85
2022/06/02 13:16:46;;;;;;;2.15;1.08;;;19.70;99.90;;;;;;4880496;29;20071;-85
2022/06/02 13:19:41;;;;;;;0.80;0.80;;;19.90;99.90;;;;;;4880148;29;20076;-85
2022/06/02 13:22:10;;;;;;;1.63;0.90;;;20.10;99.90;;;;;;4895822;29;20580;-85
2022/06/02 13:25:11;;;;;;;0.98;0.93;;;20.30;99.90;;;;;;4894841;29;20044;-85
2022/06/02 13:27:48;;;;;;;1.45;0.88;;;20.30;99.90;;;;;;4856286;29;20524;-84
2022/06/02 13:30:24;;;;;;;;;;;20.50;99.90;;;;;;4892419;29;20048;-84
2022/06/02 13:33:17;;;;;;;1.42;0.82;;;20.60;99.90;;;;;;4878887;29;20426;-84
2022/06/02 13:35:53;;;;;;;1.00;0.82;;;20.60;99.90;;;;;;4862752;29;20044;-84
2022/06/02 13:38:21;;;;;;;1.00;0.80;;;20.50;99.90;;;;;;4880873;29;20441;-84
2022/06/02 13:41:21;;;;;;;1.23;0.80;;;20.10;99.90;;;;;;4879992;29;20503;-85
2022/06/02 13:43:54;;;;;;;0.93;0.88;;;20.00;99.90;;;;;;4896232;29;20055;-84
2022/06/02 13:47:03;;;;;;;1.52;1.02;;;20.00;99.90;;;;;;4889842;29;20564;-84
2022/06/02 13:49:31;;;;;;;0.90;0.90;;;20.20;99.90;;;;;;4870157;29;20055;-84
2022/06/02 13:52:15;;;;;;;0.98;0.77;;;20.50;99.90;;;;;;4886133;29;20048;-85
2022/06/02 13:58:41;;;;;;;2.05;1.13;;;20.70;99.90;;;;;;4868912;29;20048;-84
2022/06/02 14:01:28;;;;;;;1.15;1.05;;;20.90;99.90;;;;;;4880041;29;20049;-84
2022/06/02 14:04:20;;;;;;;2.17;0.85;;;21.00;99.90;;;;;;4864701;29;20507;-84
2022/06/02 14:06:50;;;;;;;1.00;0.95;;;21.10;99.90;;;;;;4879271;29;20470;-84
2022/06/02 14:09:25;;;;;;;0.80;0.80;;;21.20;99.90;;;;;;4878604;29;20049;-83
2022/06/02 14:12:21;;;;;;;1.10;0.95;;;21.20;99.90;;;;;;4863899;29;20135;-84
2022/06/02 14:15:16;;;;;;;0.47;0.47;;;21.30;99.90;;;;;;4863494;29;20064;-85
2022/06/02 14:18:10;;;;;;;1.10;0.82;;;21.40;99.90;;;;;;4878384;29;20131;-84
2022/06/02 14:21:24;;;;;;;2.63;0.85;;;21.30;99.90;;;;;;4878840;29;20492;-84
2022/06/02 14:24:02;;;;;;;2.10;1.08;;;21.30;99.90;;;;;;4865644;29;20059;-84
2022/06/02 14:26:34;;;;;;;1.13;0.88;;;21.40;99.90;;;;;;4893564;29;20061;-84
2022/06/02 14:29:09;;;;;;;0.73;0.73;;;21.50;99.90;;;;;;4880570;29;20051;-84
2022/06/02 14:31:53;;;;;;;3.35;1.02;;;21.60;99.90;;;;;;4878669;29;20475;-84
2022/06/02 14:34:19;;;;;;;1.00;0.90;;;21.60;99.90;;;;;;4879533;29;20049;-84
2022/06/02 14:36:55;;;;;;;2.05;1.17;;;21.80;99.90;;;;;;4878949;29;20045;-84